TimeCST,TemperatureF,Dew PointF,Humidity,Sea Level PressureIn,VisibilityMPH,Wind Direction,Wind SpeedMPH,Gust SpeedMPH,PrecipitationIn,Events,Conditions,WindDirDegrees,DateUTC
12:00 AM,66.2,62.6,88,30.24,6.2,North,6.9,-,N/A,,Mostly Cloudy,360,2013-10-17 06:00:00
1:00 AM,66.2,62.6,88,30.24,6.2,North,9.2,-,N/A,,Mostly Cloudy,360,2013-10-17 07:00:00
1:45 AM,-9999,-9999,N/A,-9999,6.2,North,9.2,-,N/A,,Light Drizzle,360,2013-10-17 07:45:00
2:00 AM,66.2,62.6,88,30.24,6.2,NNE,6.9,-,N/A,,Light Drizzle,30,2013-10-17 08:00:00
3:00 AM,64.4,62.6,94,30.21,6.2,NNE,9.2,-,N/A,,Scattered Clouds,20,2013-10-17 09:00:00
4:00 AM,64.4,62.6,94,30.24,6.2,NNE,11.5,-,N/A,,Mostly Cloudy,30,2013-10-17 10:00:00
5:00 AM,64.4,62.6,94,30.24,6.2,North,9.2,-,N/A,,Scattered Clouds,10,2013-10-17 11:00:00
6:00 AM,64,62,92,29.93,25,North,6.9,,,,Partly Cloudy,0,2013-10-17 12:00:00
6:00 AM,64.4,62.6,94,30.24,6.2,North,6.9,-,N/A,,Scattered Clouds,360,2013-10-17 12:00:00
7:00 AM,64.4,62.6,94,30.27,6.2,North,6.9,-,N/A,,Mostly Cloudy,360,2013-10-17 13:00:00
8:00 AM,66.2,62.6,88,30.30,6.2,North,11.5,-,N/A,,Mostly Cloudy,360,2013-10-17 14:00:00
9:00 AM,68.0,62.6,83,30.30,6.2,North,11.5,-,N/A,,Scattered Clouds,360,2013-10-17 15:00:00
10:00 AM,71.6,62.6,73,30.30,6.2,North,13.8,-,N/A,,Scattered Clouds,360,2013-10-17 16:00:00
11:00 AM,71.6,60.8,69,30.27,6.2,North,13.8,-,N/A,,Scattered Clouds,360,2013-10-17 17:00:00
12:00 PM,75,60,50,29.88,25,North,13.8,,,,Overcast,0,2013-10-17 18:00:00
12:00 PM,75.2,60.8,61,30.24,6.2,North,13.8,-,N/A,,Mostly Cloudy,360,2013-10-17 18:00:00
1:00 PM,75.2,59.0,57,30.21,6.2,North,9.2,-,N/A,,Mostly Cloudy,360,2013-10-17 19:00:00
2:00 PM,77.0,62.6,61,30.21,6.2,NNE,11.5,-,N/A,,Overcast,30,2013-10-17 20:00:00
3:00 PM,77.0,60.8,57,30.18,6.2,North,13.8,-,N/A,,Overcast,360,2013-10-17 21:00:00
4:00 PM,77.0,60.8,57,30.15,6.2,North,13.8,-,N/A,,Overcast,360,2013-10-17 22:00:00
5:00 PM,73.4,60.8,65,30.18,6.2,North,13.8,-,N/A,,Mostly Cloudy,360,2013-10-17 23:00:00
6:00 PM,69.8,62.6,78,30.18,6.2,North,11.5,-,N/A,,Mostly Cloudy,360,2013-10-18 00:00:00
7:00 PM,68.0,62.6,83,30.21,6.2,North,11.5,-,N/A,,Mostly Cloudy,360,2013-10-18 01:00:00
8:00 PM,68.0,62.6,83,30.24,6.2,North,11.5,-,N/A,,Mostly Cloudy,360,2013-10-18 02:00:00
9:00 PM,68.0,62.6,83,30.27,6.2,North,11.5,-,N/A,,Mostly Cloudy,360,2013-10-18 03:00:00
10:00 PM,71,62,67,29.97,25,Calm,Calm,,,,Overcast,0,2013-10-18 04:00:00
10:00 PM,66.2,62.6,88,30.24,6.2,North,13.8,-,N/A,,Scattered Clouds,360,2013-10-18 04:00:00
11:00 PM,66.2,62.6,88,30.27,6.2,North,11.5,-,N/A,,Mostly Cloudy,360,2013-10-18 05:00:00